Time;durP1;ratioP1;P1;durP2;ratioP2;P2;SDS_P1;SDS_P2;PMS_P1;PMS_P2;Temp;Humidity;BMP_temperature;BMP_pressure;BME280_temperature;BME280_humidity;BME280_pressure;Samples;Min_cycle;Max_cycle;Signal;HPM_P1;HPM_P2
2024/03/21 00:00:50;;;;;;;25.02;22.33;;;;;;;12.77;100.00;101872.50;5248418;28;20067;-80
2024/03/21 00:03:22;;;;;;;25.02;22.33;;;;;;;12.71;100.00;101862.44;5229439;28;20539;-80
2024/03/21 00:05:54;;;;;;;25.65;23.05;;;;;;;12.80;100.00;101877.50;5231675;28;20044;-80
2024/03/21 00:08:26;;;;;;;26.80;23.88;;;;;;;12.78;100.00;101875.97;5247565;28;20032;-80
2024/03/21 00:10:58;;;;;;;24.25;21.73;;;;;;;12.84;100.00;101881.59;5248761;28;20029;-80
2024/03/21 00:13:30;;;;;;;27.40;23.77;;;;;;;12.90;100.00;101890.78;5251132;28;20112;-80
2024/03/21 00:16:06;;;;;;;27.15;24.20;;;;;;;13.00;100.00;101896.19;5249746;28;20025;-80
2024/03/21 00:18:38;;;;;;;27.45;24.10;;;;;;;12.92;100.00;101899.41;5249251;28;20032;-80
2024/03/21 00:21:09;;;;;;;27.02;24.25;;;;;;;12.91;100.00;101890.66;5247797;28;20032;-80
2024/03/21 00:23:41;;;;;;;26.55;23.85;;;;;;;12.93;100.00;101889.72;5249391;28;20043;-80
2024/03/21 00:26:14;;;;;;;26.45;23.58;;;;;;;12.93;100.00;101901.06;5248776;28;20045;-80
2024/03/21 00:28:46;;;;;;;26.95;24.27;;;;;;;12.99;100.00;101897.09;5249113;28;20821;-80
2024/03/21 00:31:19;;;;;;;28.13;24.95;;;;;;;13.06;100.00;101893.03;5249298;28;20068;-80
2024/03/21 00:33:51;;;;;;;30.15;25.80;;;;;;;13.05;100.00;101894.84;5248747;28;20040;-80
2024/03/21 00:36:23;;;;;;;27.58;24.23;;;;;;;12.95;100.00;101887.78;5250763;28;20025;-80
2024/03/21 00:38:55;;;;;;;29.40;24.65;;;;;;;13.00;100.00;101904.91;5247307;28;20493;-80
2024/03/21 00:41:27;;;;;;;26.92;24.02;;;;;;;12.91;100.00;101889.81;5249859;28;20036;-80
2024/03/21 00:43:58;;;;;;;26.85;23.88;;;;;;;12.93;100.00;101905.50;5247778;28;20041;-80
2024/03/21 00:46:30;;;;;;;26.65;23.88;;;;;;;12.91;100.00;101911.69;5249380;28;20059;-80
2024/03/21 00:49:04;;;;;;;25.80;23.08;;;;;;;12.91;100.00;101913.50;5248454;28;20040;-80
2024/03/21 00:51:36;;;;;;;27.08;24.27;;;;;;;12.85;100.00;101909.56;5247201;28;20112;-80
2024/03/21 00:54:08;;;;;;;27.17;24.33;;;;;;;12.74;100.00;101893.78;5249487;28;20051;-80
2024/03/21 00:56:40;;;;;;;27.40;24.63;;;;;;;12.76;100.00;101898.91;5250963;28;20040;-80
2024/03/21 00:59:12;;;;;;;27.85;24.27;;;;;;;12.85;100.00;101917.44;5250165;28;20025;-80
2024/03/21 01:01:44;;;;;;;26.40;23.55;;;;;;;12.80;100.00;101910.84;5250784;28;20561;-80
2024/03/21 01:04:17;;;;;;;27.52;24.70;;;;;;;12.74;100.00;101912.19;5250710;28;20379;-80
2024/03/21 01:06:49;;;;;;;27.85;24.20;;;;;;;12.75;100.00;101907.75;5249217;28;20494;-80
2024/03/21 01:09:21;;;;;;;32.63;25.40;;;;;;;12.83;100.00;101914.09;5247317;28;20722;-80
2024/03/21 01:11:54;;;;;;;28.25;25.25;;;;;;;12.74;100.00;101906.91;5248140;28;20055;-80
2024/03/21 01:14:26;;;;;;;27.73;24.73;;;;;;;12.82;100.00;101912.41;5247493;28;20044;-80
2024/03/21 01:16:58;;;;;;;27.38;24.52;;;;;;;12.86;100.00;101913.84;5246824;28;20037;-79
2024/03/21 01:19:30;;;;;;;33.38;24.73;;;;;;;12.95;100.00;101921.97;5246997;28;20035;-80
2024/03/21 01:22:02;;;;;;;27.45;24.55;;;;;;;12.87;100.00;101914.69;5247378;28;20041;-80
2024/03/21 01:24:34;;;;;;;27.98;25.05;;;;;;;12.81;100.00;101923.91;5246733;28;20029;-80
2024/03/21 01:27:05;;;;;;;30.30;25.48;;;;;;;12.80;100.00;101930.09;5248688;28;20029;-80
2024/03/21 01:29:37;;;;;;;28.92;25.67;;;;;;;12.81;100.00;101921.28;5245469;28;20398;-80
2024/03/21 01:32:09;;;;;;;29.42;25.40;;;;;;;12.82;100.00;101932.63;5247185;28;20028;-80
2024/03/21 01:34:41;;;;;;;28.98;25.90;;;;;;;12.86;100.00;101931.44;5247808;28;20541;-80
2024/03/21 01:37:13;;;;;;;31.05;26.35;;;;;;;12.73;100.00;101921.03;5247159;28;20051;-80
2024/03/21 01:39:45;;;;;;;27.73;24.73;;;;;;;12.81;100.00;101942.31;5248046;28;20088;-80
2024/03/21 01:42:18;;;;;;;29.40;24.77;;;;;;;12.85;100.00;101940.28;5248900;28;20048;-80
2024/03/21 01:45:06;;;;;;;30.50;26.10;;;;;;;13.04;100.00;101932.63;5249007;28;20053;-80
2024/03/21 01:47:38;;;;;;;29.63;25.30;;;;;;;12.86;100.00;101932.25;5248764;28;20029;-80
2024/03/21 01:50:10;;;;;;;28.40;25.33;;;;;;;12.87;100.00;101923.41;5248108;28;20075;-80
2024/03/21 01:52:43;;;;;;;29.80;25.90;;;;;;;12.93;100.00;101937.06;5245690;28;20047;-80
2024/03/21 01:55:15;;;;;;;30.98;25.95;;;;;;;12.82;100.00;101915.03;5243538;28;20033;-80
2024/03/21 01:57:47;;;;;;;30.73;25.38;;;;;;;12.94;100.00;101933.47;5243986;28;20124;-80
2024/03/21 02:00:20;;;;;;;29.05;24.48;;;;;;;12.89;100.00;101926.78;5242319;28;20192;-80
2024/03/21 02:02:52;;;;;;;29.75;26.45;;;;;;;12.84;100.00;101933.31;5246823;28;20048;-80
2024/03/21 02:05:24;;;;;;;29.40;25.40;;;;;;;12.84;100.00;101926.31;5247778;28;20796;-80
2024/03/21 02:07:56;;;;;;;29.45;24.55;;;;;;;12.79;100.00;101917.91;5247381;28;20503;-79
2024/03/21 02:10:28;;;;;;;26.00;23.23;;;;;;;12.80;100.00;101919.56;5246654;28;20037;-80
2024/03/21 02:13:00;;;;;;;27.85;23.33;;;;;;;12.79;100.00;101909.19;5247847;28;20588;-80
2024/03/21 02:15:32;;;;;;;27.65;24.65;;;;;;;12.71;100.00;101903.69;5247326;28;20044;-80
2024/03/21 02:18:04;;;;;;;29.80;24.48;;;;;;;12.77;100.00;101919.84;5247172;28;20029;-80
2024/03/21 02:20:36;;;;;;;26.40;23.60;;;;;;;12.69;100.00;101908.22;5246721;28;20040;-80
2024/03/21 02:23:10;;;;;;;25.52;22.90;;;;;;;12.72;100.00;101923.75;5244966;28;20398;-80
2024/03/21 02:25:42;;;;;;;26.58;23.48;;;;;;;12.73;100.00;101920.16;5248132;28;20037;-80
2024/03/21 02:28:14;;;;;;;27.20;22.92;;;;;;;12.70;100.00;101913.38;5248155;28;20036;-80
2024/03/21 02:30:47;;;;;;;29.17;23.77;;;;;;;12.69;100.00;101909.06;5248295;28;20041;-80
2024/03/21 02:33:19;;;;;;;26.33;23.55;;;;;;;12.58;100.00;101894.13;5247454;28;20036;-80
2024/03/21 02:35:51;;;;;;;26.13;23.33;;;;;;;12.72;100.00;101914.06;5247687;28;20037;-80
2024/03/21 02:38:23;;;;;;;28.98;24.98;;;;;;;12.58;100.00;101915.16;5245096;28;20496;-79
2024/03/21 02:40:55;;;;;;;27.60;23.35;;;;;;;12.62;100.00;101927.09;5245060;28;20415;-80
2024/03/21 02:43:27;;;;;;;27.20;24.25;;;;;;;12.54;100.00;101926.00;5242280;28;20045;-79
2024/03/21 02:45:59;;;;;;;28.20;24.25;;;;;;;12.50;100.00;101933.28;5244226;28;20036;-79
2024/03/21 02:48:32;;;;;;;27.10;23.35;;;;;;;12.50;100.00;101942.94;5230551;28;20052;-79
2024/03/21 02:51:04;;;;;;;29.88;23.08;;;;;;;12.44;100.00;101951.31;5247231;28;20051;-79
2024/03/21 02:53:36;;;;;;;27.05;22.80;;;;;;;12.28;100.00;101926.19;5249852;28;20044;-80
2024/03/21 02:56:07;;;;;;;23.08;20.60;;;;;;;12.34;100.00;101935.38;5250718;28;20036;-80
2024/03/21 02:58:39;;;;;;;26.73;21.13;;;;;;;12.35;100.00;101944.94;5250852;28;20039;-80
2024/03/21 03:01:11;;;;;;;24.52;21.25;;;;;;;12.33;100.00;101949.47;5248715;28;20036;-79
2024/03/21 03:03:43;;;;;;;24.27;21.45;;;;;;;12.20;100.00;101936.44;5250852;28;20036;-79
2024/03/21 03:06:20;;;;;;;23.05;20.55;;;;;;;12.32;100.00;101953.91;5250340;28;20033;-80
2024/03/21 03:08:51;;;;;;;23.92;21.00;;;;;;;12.21;100.00;101951.22;5230897;28;20052;-80
2024/03/21 03:11:23;;;;;;;21.95;19.42;;;;;;;12.17;100.00;101958.50;5251171;28;20040;-80
2024/03/21 03:13:56;;;;;;;22.75;19.40;;;;;;;12.16;100.00;101951.56;5250301;28;20279;-80
2024/03/21 03:16:28;;;;;;;22.75;18.60;;;;;;;12.02;100.00;101927.28;5250992;28;20040;-80
2024/03/21 03:19:02;;;;;;;21.33;18.95;;;;;;;12.17;100.00;101957.66;5247834;28;20044;-80
2024/03/21 03:21:34;;;;;;;22.85;18.63;;;;;;;12.00;100.00;101956.25;5250824;28;20037;-80
2024/03/21 03:24:06;;;;;;;19.70;17.60;;;;;;;12.02;100.00;101964.03;5251472;28;20383;-80
2024/03/21 03:26:38;;;;;;;22.90;19.25;;;;;;;12.00;100.00;101964.13;5243195;28;20376;-80
2024/03/21 03:29:10;;;;;;;20.60;18.40;;;;;;;11.91;100.00;101951.69;5249003;28;20033;-79
2024/03/21 03:31:42;;;;;;;19.88;17.33;;;;;;;11.92;100.00;101969.13;5249735;28;20036;-80
2024/03/21 03:37:04;;;;;;;19.58;17.10;;;;;;;11.87;100.00;101972.09;5248362;28;20032;-80
2024/03/21 03:39:36;;;;;;;20.33;17.73;;;;;;;11.90;100.00;101984.16;5249328;28;20043;-79
2024/03/21 03:42:08;;;;;;;19.45;17.10;;;;;;;11.87;100.00;101984.38;5251955;28;20082;-79
2024/03/21 03:44:40;;;;;;;18.77;15.98;;;;;;;11.86;100.00;101975.66;5251584;28;20048;-80
2024/03/21 03:47:12;;;;;;;19.73;16.40;;;;;;;11.77;100.00;101984.16;5250475;28;20033;-80
2024/03/21 03:49:44;;;;;;;23.08;16.83;;;;;;;11.72;100.00;101988.91;5250665;28;20029;-80
2024/03/21 03:52:16;;;;;;;22.17;17.63;;;;;;;11.67;100.00;102004.16;5253043;28;20040;-80
2024/03/21 03:54:48;;;;;;;18.70;16.65;;;;;;;11.71;100.00;102018.75;5254547;28;20028;-80
2024/03/21 03:57:20;;;;;;;18.80;16.80;;;;;;;11.64;100.00;102007.81;5250597;28;20505;-80
2024/03/21 03:59:52;;;;;;;20.25;17.30;;;;;;;11.78;100.00;102025.25;5250131;28;20498;-80
2024/03/21 04:02:27;;;;;;;18.48;16.35;;;;;;;11.69;100.00;102008.31;5251318;28;20033;-80
2024/03/21 04:04:59;;;;;;;19.42;16.70;;;;;;;11.79;100.00;102029.53;5251848;28;20063;-80
2024/03/21 04:07:32;;;;;;;22.45;17.15;;;;;;;11.71;100.00;102017.91;5251345;28;20037;-80
2024/03/21 04:10:05;;;;;;;19.95;16.05;;;;;;;11.80;100.00;102031.19;5250854;28;20032;-80
2024/03/21 04:12:38;;;;;;;;;;;;;;;12.57;100.00;102044.88;5251608;28;20386;-80
2024/03/21 04:15:10;;;;;;;19.10;15.73;;;;;;;11.89;100.00;102027.97;5250190;28;19917;-80
2024/03/21 04:17:42;;;;;;;20.70;17.50;;;;;;;11.92;100.00;102034.78;5250086;28;20060;-80
2024/03/21 04:20:14;;;;;;;22.13;17.88;;;;;;;11.87;100.00;102039.53;5251012;28;20033;-80
2024/03/21 04:22:46;;;;;;;21.98;18.73;;;;;;;11.84;100.00;102032.69;5252353;28;20248;-80
2024/03/21 04:25:18;;;;;;;22.50;18.40;;;;;;;11.88;100.00;102039.41;5252882;28;20159;-80
2024/03/21 04:27:50;;;;;;;20.80;17.35;;;;;;;11.86;100.00;102037.84;5249601;28;20494;-80
2024/03/21 04:30:22;;;;;;;23.20;17.85;;;;;;;11.85;100.00;102033.53;5248072;28;20033;-80
2024/03/21 04:32:54;;;;;;;22.10;18.92;;;;;;;11.87;100.00;102047.41;5251307;28;20064;-80
2024/03/21 04:35:26;;;;;;;21.75;19.30;;;;;;;11.75;100.00;102035.94;5244162;28;20032;-79
2024/03/21 04:37:59;;;;;;;24.58;19.40;;;;;;;11.76;100.00;102036.78;5247250;28;20043;-80
2024/03/21 04:40:31;;;;;;;;;;;;;;;12.58;100.00;102051.00;5248894;28;20525;-79
2024/03/21 04:43:03;;;;;;;24.65;19.85;;;;;;;11.90;100.00;102060.31;5246718;28;19927;-79
2024/03/21 04:45:36;;;;;;;23.27;19.65;;;;;;;11.84;100.00;102066.81;5246036;28;20453;-79
2024/03/21 04:48:07;;;;;;;22.60;20.20;;;;;;;11.89;100.00;102067.34;5243966;28;20040;-80
2024/03/21 04:50:39;;;;;;;24.30;21.27;;;;;;;11.85;100.00;102070.28;5249315;28;20032;-80
2024/03/21 04:53:11;;;;;;;28.45;21.15;;;;;;;11.81;100.00;102077.50;5248403;28;20056;-80
2024/03/21 04:55:43;;;;;;;31.25;23.05;;;;;;;11.78;100.00;102067.25;5251227;28;20036;-80
2024/03/21 04:58:15;;;;;;;25.08;21.33;;;;;;;11.80;100.00;102081.09;5251574;28;20032;-80
2024/03/21 05:00:47;;;;;;;26.02;21.67;;;;;;;11.78;100.00;102076.88;5249962;28;20028;-80
2024/03/21 05:03:19;;;;;;;27.13;22.52;;;;;;;11.76;100.00;102074.38;5234504;28;20057;-80
2024/03/21 05:05:51;;;;;;;22.23;19.80;;;;;;;11.85;100.00;102092.13;5251340;28;20020;-80
2024/03/21 05:08:23;;;;;;;25.77;21.60;;;;;;;11.80;100.00;102093.38;5250684;28;20744;-80
2024/03/21 05:10:55;;;;;;;23.88;21.10;;;;;;;11.79;100.00;102105.69;5252470;28;20099;-80
2024/03/21 05:13:27;;;;;;;27.10;21.50;;;;;;;11.85;100.00;102099.16;5251272;28;20033;-80
2024/03/21 05:15:58;;;;;;;22.48;20.13;;;;;;;11.86;100.00;102101.72;5250162;28;20037;-80
2024/03/21 05:18:30;;;;;;;24.20;19.65;;;;;;;11.86;100.00;102114.84;5251416;28;20443;-80
2024/03/21 05:21:03;;;;;;;19.60;16.23;;;;;;;11.77;100.00;102110.19;5249240;28;20033;-84
2024/03/21 05:23:35;;;;;;;17.35;14.45;;;;;;;11.86;100.00;102132.38;5245804;28;20032;-82
2024/03/21 05:26:07;;;;;;;16.52;13.57;;;;;;;11.77;100.00;102123.31;5251660;28;20375;-80
2024/03/21 05:28:39;;;;;;;13.63;11.02;;;;;;;11.71;100.00;102126.38;5249326;28;20032;-80
2024/03/21 05:31:22;;;;;;;9.77;8.73;;;;;;;11.85;100.00;102128.88;5250647;28;20239;-80
2024/03/21 05:33:54;;;;;;;9.82;7.80;;;;;;;11.69;100.00;102146.63;5250900;28;20036;-80
2024/03/21 05:36:26;;;;;;;8.80;6.80;;;;;;;11.62;100.00;102146.19;5253115;28;20596;-80
2024/03/21 05:38:58;;;;;;;7.32;6.35;;;;;;;11.56;100.00;102140.56;5256767;28;20569;-79
2024/03/21 05:41:30;;;;;;;9.10;6.67;;;;;;;11.56;100.00;102151.88;5255180;28;20490;-80
2024/03/21 05:44:02;;;;;;;8.50;6.85;;;;;;;11.51;100.00;102158.38;5236195;28;20055;-80
2024/03/21 05:46:35;;;;;;;7.63;6.68;;;;;;;11.51;100.00;102164.47;5255006;28;20037;-79
2024/03/21 05:49:09;;;;;;;7.80;7.10;;;;;;;11.52;100.00;102154.84;5252429;28;20040;-80
2024/03/21 05:51:42;;;;;;;8.07;7.20;;;;;;;11.39;100.00;102157.44;5252491;28;20033;-80
2024/03/21 05:54:13;;;;;;;8.63;7.72;;;;;;;11.49;100.00;102176.03;5252012;28;20025;-80
2024/03/21 05:56:46;;;;;;;8.77;7.80;;;;;;;11.40;100.00;102165.22;5251950;28;20056;-79
2024/03/21 05:59:18;;;;;;;9.07;8.10;;;;;;;11.46;100.00;102184.94;5257277;28;20216;-81
2024/03/21 06:01:50;;;;;;;9.80;8.80;;;;;;;11.41;100.00;102180.00;5255185;28;20036;-80
2024/03/21 06:04:22;;;;;;;9.38;8.48;;;;;;;11.35;100.00;102177.78;5252592;28;20036;-80
2024/03/21 06:06:54;;;;;;;9.45;8.57;;;;;;;11.35;100.00;102179.56;5252356;28;20062;-81
2024/03/21 06:09:28;;;;;;;9.57;8.68;;;;;;;11.33;100.00;102200.66;5252938;28;20025;-81
2024/03/21 06:12:00;;;;;;;11.00;10.00;;;;;;;11.32;100.00;102191.09;5253795;28;20040;-80
2024/03/21 06:14:33;;;;;;;11.88;9.90;;;;;;;11.33;100.00;102191.97;5260290;28;20021;-85
2024/03/21 06:17:06;;;;;;;10.98;9.98;;;;;;;11.24;100.00;102182.91;5268786;28;20040;-88
2024/03/21 06:19:38;;;;;;;9.82;8.82;;;;;;;11.38;100.00;102195.94;5269250;28;20025;-85
2024/03/21 06:22:11;;;;;;;11.88;10.68;;;;;;;11.26;100.00;102186.28;5266735;28;20035;-87
2024/03/21 06:24:44;;;;;;;13.00;11.35;;;;;;;11.38;100.00;102209.06;5252154;28;20045;-87
2024/03/21 06:27:15;;;;;;;14.10;12.65;;;;;;;11.30;100.00;102197.41;5270781;28;20036;-83
2024/03/21 06:29:47;;;;;;;15.13;13.25;;;;;;;11.30;100.00;102198.25;5257433;28;20025;-80
2024/03/21 06:32:19;;;;;;;15.13;13.43;;;;;;;11.30;100.00;102219.22;5262805;28;20104;-81
2024/03/21 06:34:51;;;;;;;15.27;13.70;;;;;;;11.25;100.00;102208.22;5265688;28;20051;-81
2024/03/21 06:37:23;;;;;;;16.42;12.88;;;;;;;11.42;100.00;102226.28;5266257;28;20027;-80
2024/03/21 06:39:58;;;;;;;14.07;12.68;;;;;;;11.44;100.00;102232.28;5265388;28;20028;-81
2024/03/21 06:42:31;;;;;;;12.93;11.63;;;;;;;11.51;100.00;102230.06;5264456;28;20024;-82
2024/03/21 06:45:04;;;;;;;14.27;12.85;;;;;;;11.57;100.00;102241.97;5262029;28;20033;-81
2024/03/21 06:47:40;;;;;;;13.13;11.82;;;;;;;11.57;100.00;102232.31;5259308;28;20040;-81
2024/03/21 06:50:17;;;;;;;13.63;12.30;;;;;;;11.55;100.00;102230.72;5242693;28;20060;-81
2024/03/21 06:52:50;;;;;;;16.80;15.00;;;;;;;11.48;100.00;102229.44;5261846;28;20025;-82
2024/03/21 06:55:23;;;;;;;17.00;15.10;;;;;;;11.46;100.00;102229.56;5262529;28;20036;-81
2024/03/21 06:57:56;;;;;;;16.73;14.93;;;;;;;11.55;100.00;102243.84;5265721;28;20039;-80
2024/03/21 07:00:28;;;;;;;17.33;15.60;;;;;;;11.59;100.00;102255.81;5264566;28;20781;-81
2024/03/21 07:03:00;;;;;;;17.00;14.52;;;;;;;11.58;100.00;102259.38;5265363;28;20037;-82
2024/03/21 07:05:32;;;;;;;17.02;15.32;;;;;;;11.67;100.00;102261.41;5268860;28;20039;-80
2024/03/21 07:08:06;;;;;;;15.77;14.18;;;;;;;11.61;100.00;102259.19;5268703;28;20341;-82
2024/03/21 07:10:38;;;;;;;18.33;13.43;;;;;;;11.66;100.00;102265.81;5268634;28;20032;-82
2024/03/21 07:13:09;;;;;;;14.77;13.27;;;;;;;11.68;100.00;102273.59;5269608;28;20028;-81
2024/03/21 07:15:42;;;;;;;14.00;12.52;;;;;;;11.75;100.00;102285.38;5269575;28;20086;-81
2024/03/21 07:18:14;;;;;;;13.20;11.80;;;;;;;11.81;100.00;102286.72;5267634;28;20029;-81
2024/03/21 07:20:56;;;;;;;13.23;11.85;;;;;;;12.00;100.00;102299.50;5266301;28;20059;-82
2024/03/21 07:23:28;;;;;;;14.80;11.07;;;;;;;11.77;100.00;102293.97;5267223;28;20033;-81
2024/03/21 07:26:00;;;;;;;11.57;10.48;;;;;;;11.68;100.00;102290.19;5265957;28;20043;-81
2024/03/21 07:28:32;;;;;;;12.30;10.57;;;;;;;11.61;100.00;102274.94;5264734;28;20051;-80
2024/03/21 07:31:05;;;;;;;11.80;9.68;;;;;;;11.82;100.00;102319.91;5266609;28;20036;-81
2024/03/21 07:33:37;;;;;;;11.20;10.20;;;;;;;11.80;100.00;102322.66;5266504;28;20037;-82
2024/03/21 07:36:09;;;;;;;10.95;9.48;;;;;;;11.79;100.00;102330.66;5264621;28;20033;-80
2024/03/21 07:38:41;;;;;;;12.25;10.95;;;;;;;11.71;100.00;102333.78;5264327;28;20024;-81
2024/03/21 07:41:12;;;;;;;16.17;14.20;;;;;;;11.75;100.00;102330.00;5265827;28;20025;-81
2024/03/21 07:43:44;;;;;;;11.52;10.45;;;;;;;11.73;100.00;102325.78;5264627;28;20293;-81
2024/03/21 07:46:18;;;;;;;10.38;9.38;;;;;;;11.72;100.00;102326.75;5247498;28;20053;-81
2024/03/21 07:48:50;;;;;;;10.20;8.95;;;;;;;11.83;100.00;102337.38;5264731;28;20040;-81
2024/03/21 07:51:22;;;;;;;9.40;8.18;;;;;;;11.79;100.00;102344.63;5265265;28;20051;-81
2024/03/21 07:53:57;;;;;;;8.52;7.70;;;;;;;11.83;100.00;102346.13;5265273;28;20036;-80
2024/03/21 07:56:29;;;;;;;7.85;7.13;;;;;;;11.80;100.00;102348.06;5265733;28;20039;-80
2024/03/21 07:59:01;;;;;;;7.63;6.88;;;;;;;11.80;100.00;102351.53;5266092;28;20028;-81
2024/03/21 08:01:33;;;;;;;6.97;6.28;;;;;;;11.80;100.00;102354.16;5266194;28;20028;-81
2024/03/21 08:04:07;;;;;;;6.57;5.97;;;;;;;11.76;100.00;102336.94;5266291;28;20036;-81
2024/03/21 08:06:39;;;;;;;7.05;5.70;;;;;;;11.66;100.00;102347.19;5265404;28;20099;-81
2024/03/21 08:09:11;;;;;;;7.22;6.50;;;;;;;11.66;100.00;102341.94;5265727;28;20033;-81
2024/03/21 08:11:43;;;;;;;6.72;6.10;;;;;;;11.72;100.00;102356.47;5261242;28;20488;-81
2024/03/21 08:14:15;;;;;;;8.23;6.75;;;;;;;11.86;100.00;102374.81;5245570;28;20205;-82
2024/03/21 08:16:47;;;;;;;7.35;6.65;;;;;;;11.85;100.00;102365.22;5264834;28;20033;-81
2024/03/21 08:19:19;;;;;;;7.25;6.20;;;;;;;11.89;100.00;102365.88;5263763;28;20031;-81
2024/03/21 08:21:51;;;;;;;8.55;6.75;;;;;;;11.99;100.00;102374.00;5242805;28;20049;-80
2024/03/21 08:24:26;;;;;;;7.32;6.43;;;;;;;11.82;100.00;102356.69;5258910;28;20025;-81
2024/03/21 08:27:02;;;;;;;9.30;7.40;;;;;;;11.93;100.00;102377.84;5259694;28;20028;-81
2024/03/21 08:29:34;;;;;;;8.73;7.30;;;;;;;11.91;100.00;102377.97;5257827;28;20037;-81
2024/03/21 08:32:11;;;;;;;9.23;7.13;;;;;;;11.98;100.00;102367.06;5259118;28;20029;-82
2024/03/21 08:34:43;;;;;;;7.65;6.90;;;;;;;11.95;100.00;102377.78;5256344;28;20032;-83
2024/03/21 08:37:15;;;;;;;7.90;6.47;;;;;;;11.97;100.00;102387.25;5259599;28;20028;-81
2024/03/21 08:39:47;;;;;;;8.73;7.25;;;;;;;12.05;100.00;102389.38;5257114;28;20039;-82
2024/03/21 08:42:19;;;;;;;9.18;7.47;;;;;;;12.01;100.00;102391.34;5254978;28;20033;-80
2024/03/21 08:44:54;;;;;;;7.95;7.03;;;;;;;11.88;100.00;102370.28;5255222;28;20028;-80
2024/03/21 08:47:26;;;;;;;8.02;6.97;;;;;;;11.89;100.00;102373.75;5257086;28;20037;-82
2024/03/21 08:49:58;;;;;;;11.68;6.85;;;;;;;11.91;100.00;102383.22;5254774;28;20041;-80
2024/03/21 08:52:30;;;;;;;8.40;6.10;;;;;;;11.95;100.00;102393.53;5257373;28;20040;-82
2024/03/21 08:55:02;;;;;;;7.82;6.45;;;;;;;11.93;100.00;102394.47;5255566;28;20294;-81
2024/03/21 08:57:35;;;;;;;7.25;6.22;;;;;;;12.04;100.00;102393.75;5256290;28;20054;-81
2024/03/21 09:00:08;;;;;;;7.57;5.88;;;;;;;11.99;100.00;102389.75;5252937;28;20052;-82
2024/03/21 09:02:40;;;;;;;7.68;6.00;;;;;;;12.00;100.00;102408.03;5254761;28;20032;-82
2024/03/21 09:05:12;;;;;;;9.05;6.13;;;;;;;12.03;100.00;102417.50;5256782;28;20470;-80
2024/03/21 09:07:44;;;;;;;7.78;6.10;;;;;;;12.00;100.00;102405.41;5255747;28;20049;-81
2024/03/21 09:10:16;;;;;;;7.20;5.70;;;;;;;12.03;100.00;102407.00;5253554;28;20051;-81
2024/03/21 09:12:48;;;;;;;7.45;6.03;;;;;;;12.14;100.00;102412.38;5254864;28;20060;-81
2024/03/21 09:15:20;;;;;;;6.30;4.90;;;;;;;12.06;100.00;102412.06;5256721;28;20043;-81
2024/03/21 09:17:52;;;;;;;5.80;4.15;;;;;;;12.13;100.00;102408.06;5253485;28;20513;-80
2024/03/21 09:20:25;;;;;;;5.60;4.20;;;;;;;12.10;100.00;102411.75;5253975;28;20040;-80
2024/03/21 09:22:57;;;;;;;;;;;;;;;12.91;100.00;102416.72;5256291;28;20035;-80
2024/03/21 09:25:28;;;;;;;4.97;4.25;;;;;;;12.19;100.00;102402.41;5251544;28;19912;-81
2024/03/21 09:28:00;;;;;;;5.38;4.03;;;;;;;12.25;100.00;102390.66;5250058;28;20782;-82
2024/03/21 09:30:32;;;;;;;4.22;3.83;;;;;;;12.30;100.00;102404.31;5255438;28;20039;-83
2024/03/21 09:33:04;;;;;;;4.82;3.40;;;;;;;12.54;100.00;102414.94;5254322;28;20033;-82
2024/03/21 09:35:36;;;;;;;6.00;3.88;;;;;;;12.70;100.00;102415.59;5252825;28;20056;-81
2024/03/21 09:38:08;;;;;;;4.35;3.33;;;;;;;12.78;100.00;102410.66;5257231;28;20843;-81
2024/03/21 09:40:43;;;;;;;5.82;3.40;;;;;;;12.82;100.00;102403.38;5256239;28;20117;-83
2024/03/21 09:43:15;;;;;;;6.07;4.10;;;;;;;12.79;100.00;102412.31;5258490;28;20041;-82
2024/03/21 09:45:51;;;;;;;3.88;2.80;;;;;;;12.83;100.00;102416.41;5236534;28;20509;-82
2024/03/21 09:48:23;;;;;;;4.85;2.80;;;;;;;12.84;100.00;102428.66;5252336;28;20029;-82
2024/03/21 09:50:55;;;;;;;7.22;2.88;;;;;;;12.86;100.00;102436.41;5254369;28;20330;-81
2024/03/21 09:53:27;;;;;;;4.95;2.15;;;;;;;12.82;100.00;102433.16;5236235;28;20124;-81
2024/03/21 09:55:59;;;;;;;4.45;1.80;;;;;;;12.86;100.00;102436.41;5255005;28;20284;-82
2024/03/21 09:58:31;;;;;;;4.20;2.20;;;;;;;12.96;100.00;102441.91;5254180;28;20379;-83
2024/03/21 10:01:22;;;;;;;5.18;1.98;;;;;;;13.10;100.00;102431.22;5255757;28;20216;-82
2024/03/21 10:03:58;;;;;;;3.42;1.90;;;;;;;13.14;100.00;102451.13;5255432;28;20043;-81
2024/03/21 10:06:30;;;;;;;3.42;1.88;;;;;;;13.02;100.00;102444.91;5254721;28;20037;-81
2024/03/21 10:09:03;;;;;;;4.85;2.25;;;;;;;13.04;100.00;102458.00;5255719;28;20036;-82
2024/03/21 10:11:35;;;;;;;6.57;2.60;;;;;;;13.03;100.00;102456.28;5255769;28;20021;-82
2024/03/21 10:14:13;;;;;;;6.15;2.40;;;;;;;13.18;100.00;102455.22;5254401;28;20130;-82
2024/03/21 10:16:45;;;;;;;3.88;3.13;;;;;;;13.04;100.00;102458.00;5253726;28;20044;-82
2024/03/21 10:19:18;;;;;;;5.90;4.30;;;;;;;13.03;100.00;102465.03;5254452;28;20033;-82
2024/03/21 10:21:50;;;;;;;;;;;;;;;13.84;100.00;102475.09;5236177;28;20047;-82
2024/03/21 10:24:22;;;;;;;5.95;4.10;;;;;;;13.25;97.27;102477.56;5257593;28;19913;-81
2024/03/21 10:26:54;;;;;;;6.60;4.20;;;;;;;13.33;100.00;102479.66;5257581;28;20399;-82
2024/03/21 10:29:26;;;;;;;6.43;4.93;;;;;;;13.43;100.00;102483.31;5257072;28;20033;-82
2024/03/21 10:31:59;;;;;;;5.87;4.10;;;;;;;13.55;97.12;102485.06;5256448;28;20040;-83
2024/03/21 10:34:31;;;;;;;5.17;3.00;;;;;;;13.51;94.47;102493.31;5258714;28;20296;-82
2024/03/21 10:37:04;;;;;;;6.47;3.67;;;;;;;13.60;91.95;102490.03;5258345;28;20294;-82
2024/03/21 10:39:36;;;;;;;4.55;3.03;;;;;;;13.53;91.01;102504.59;5257854;28;20052;-82
2024/03/21 10:42:18;;;;;;;4.95;3.40;;;;;;;13.58;92.62;102505.94;5258208;28;20032;-81
2024/03/21 10:44:53;;;;;;;7.10;4.10;;;;;;;13.41;92.94;102502.81;5258726;28;20044;-82
2024/03/21 10:47:25;;;;;;;6.65;4.50;;;;;;;13.32;91.02;102504.28;5257189;28;20475;-81
2024/03/21 10:49:58;;;;;;;7.75;5.82;;;;;;;13.35;95.24;102515.44;5237051;28;20718;-83
2024/03/21 10:52:30;;;;;;;10.30;6.82;;;;;;;13.34;96.29;102508.50;5256246;28;20870;-81
2024/03/21 10:55:03;;;;;;;8.70;7.03;;;;;;;13.29;96.52;102510.59;5255310;28;20121;-81
2024/03/21 10:57:34;;;;;;;7.60;6.85;;;;;;;13.36;95.23;102505.75;5255777;28;20028;-82
2024/03/21 11:00:10;;;;;;;7.13;6.40;;;;;;;13.44;95.57;102516.59;5255486;28;20028;-81
2024/03/21 11:02:44;;;;;;;8.25;6.40;;;;;;;13.49;96.44;102524.19;5255155;28;20032;-81
2024/03/21 11:05:17;;;;;;;9.40;6.70;;;;;;;13.44;93.16;102524.50;5255233;28;20033;-82
2024/03/21 11:07:49;;;;;;;7.88;7.07;;;;;;;13.46;95.52;102519.97;5256592;28;20035;-82
2024/03/21 11:10:22;;;;;;;8.02;7.22;;;;;;;13.45;96.30;102522.69;5256341;28;20036;-82
2024/03/21 11:12:54;;;;;;;9.70;8.23;;;;;;;13.51;93.47;102520.47;5255185;28;20036;-82
2024/03/21 11:15:26;;;;;;;9.43;8.40;;;;;;;13.46;93.36;102506.81;5236984;28;20046;-81
2024/03/21 11:17:58;;;;;;;9.40;8.48;;;;;;;13.46;91.25;102522.59;5255535;28;20085;-81
2024/03/21 11:20:30;;;;;;;8.65;7.85;;;;;;;13.48;90.20;102530.38;5254237;28;20025;-81
2024/03/21 11:23:02;;;;;;;9.35;8.18;;;;;;;13.48;88.88;102519.84;5254943;28;20040;-82
2024/03/21 11:25:34;;;;;;;7.93;7.10;;;;;;;13.54;87.81;102519.44;5254605;28;20032;-83
2024/03/21 11:28:11;;;;;;;9.73;7.10;;;;;;;13.62;87.93;102499.50;5254186;28;20024;-81
2024/03/21 11:30:43;;;;;;;9.95;7.93;;;;;;;13.62;89.23;102509.19;5255819;28;20044;-81
2024/03/21 11:33:15;;;;;;;10.18;8.18;;;;;;;13.78;92.04;102496.59;5255424;28;20040;-81
2024/03/21 11:35:48;;;;;;;8.13;7.20;;;;;;;13.88;91.07;102497.63;5254298;28;20453;-81